Terminal Aerodrome Forecast
Issued by NWS Brownsville, TX

Home | Current Version | Previous Version | Text Only | Print | Product List | Glossary On
Versions: 1 2 3 4 5 6 7 8 9 10 11 12 13 14 15 16 17
000
FTUS44 KBRO 272300
TAFBRO
TAF
KBRO 272320Z 2800/2824 07007KT P6SM FEW040
     FM280100 12002KT P6SM SKC
      TEMPO 2810/2814 5SM BR
     FM281500 18005KT P6SM SKC
     FM281700 16012KT P6SM FEW050=

USA.gov is the U.S. government's official web portal to all federal, state and local government web resources and services.